In Rescue
 
Open Full Screen Window  High Contrast Mode
July 25, 2021 8:33 AM EDT
Weather Information
Wind Direction
  ---
Wind Speed
  00 kt (0 mph)
Wind Gust
  00 kt (0 mph)
Altimeter
29.97 in
Visibility
10 SM
Temperature
22° C
72° F
Dewpoint
21° C
70° F
Humidity
94%
1hr Rain Fall
00.00 in.
24hr Rain Fall
00.00 in.
Sky Condition
Overcast @ 1,700 ft
Broken @ 1,100 ft
MVFR

METAR K4I3 251233Z AUTO 00000KT 10SM BKN011 OVC017 22/21 A2997 RMK AO2

FAA Disclaimer: The data displayed is for advisory purposes only and is not to be used for flight planning or operations.